sensor_id;sensor_type;location;lat;lon;timestamp;P1;durP1;ratioP1;P2;durP2;ratioP2
40807;SDS011;26523;52.504;13.498;2022-09-03T00:01:11;5.15;;;0.95;;
40807;SDS011;26523;52.504;13.498;2022-09-03T00:03:43;2.10;;;0.93;;
40807;SDS011;26523;52.504;13.498;2022-09-03T00:09:15;4.15;;;1.13;;
40807;SDS011;26523;52.504;13.498;2022-09-03T00:11:50;2.47;;;1.08;;
40807;SDS011;26523;52.504;13.498;2022-09-03T00:16:57;2.60;;;0.90;;
40807;SDS011;26523;52.504;13.498;2022-09-03T00:19:31;1.55;;;0.90;;
40807;SDS011;26523;52.504;13.498;2022-09-03T00:22:08;2.95;;;0.80;;
40807;SDS011;26523;52.504;13.498;2022-09-03T00:24:39;1.77;;;1.02;;
40807;SDS011;26523;52.504;13.498;2022-09-03T00:27:12;1.52;;;0.75;;
40807;SDS011;26523;52.504;13.498;2022-09-03T00:32:20;2.35;;;1.00;;
40807;SDS011;26523;52.504;13.498;2022-09-03T00:35:02;1.90;;;0.70;;
40807;SDS011;26523;52.504;13.498;2022-09-03T00:37:29;3.20;;;1.17;;
40807;SDS011;26523;52.504;13.498;2022-09-03T00:39:55;1.83;;;0.93;;
40807;SDS011;26523;52.504;13.498;2022-09-03T00:42:25;2.90;;;0.80;;
40807;SDS011;26523;52.504;13.498;2022-09-03T00:45:17;1.30;;;0.73;;
40807;SDS011;26523;52.504;13.498;2022-09-03T00:48:03;1.95;;;0.88;;
40807;SDS011;26523;52.504;13.498;2022-09-03T00:50:41;2.35;;;0.70;;
40807;SDS011;26523;52.504;13.498;2022-09-03T00:53:43;2.47;;;0.75;;
40807;SDS011;26523;52.504;13.498;2022-09-03T00:56:32;4.45;;;0.70;;
40807;SDS011;26523;52.504;13.498;2022-09-03T00:59:41;1.10;;;0.77;;
40807;SDS011;26523;52.504;13.498;2022-09-03T01:02:24;0.75;;;0.52;;
40807;SDS011;26523;52.504;13.498;2022-09-03T01:13:01;3.55;;;0.75;;
40807;SDS011;26523;52.504;13.498;2022-09-03T01:18:27;0.68;;;0.50;;
40807;SDS011;26523;52.504;13.498;2022-09-03T01:24:19;5.45;;;0.82;;
40807;SDS011;26523;52.504;13.498;2022-09-03T01:27:16;3.53;;;0.98;;
40807;SDS011;26523;52.504;13.498;2022-09-03T01:37:52;1.02;;;0.47;;
40807;SDS011;26523;52.504;13.498;2022-09-03T01:40:31;3.13;;;1.23;;
40807;SDS011;26523;52.504;13.498;2022-09-03T01:46:16;0.70;;;0.60;;
40807;SDS011;26523;52.504;13.498;2022-09-03T01:48:59;2.00;;;0.75;;
40807;SDS011;26523;52.504;13.498;2022-09-03T01:51:35;3.28;;;0.90;;
40807;SDS011;26523;52.504;13.498;2022-09-03T01:59:25;3.70;;;0.65;;
40807;SDS011;26523;52.504;13.498;2022-09-03T02:02:00;3.05;;;1.00;;
40807;SDS011;26523;52.504;13.498;2022-09-03T02:04:30;1.75;;;0.70;;
40807;SDS011;26523;52.504;13.498;2022-09-03T02:06:56;2.90;;;0.82;;
40807;SDS011;26523;52.504;13.498;2022-09-03T02:09:24;1.52;;;0.90;;
40807;SDS011;26523;52.504;13.498;2022-09-03T02:12:02;7.10;;;1.23;;
40807;SDS011;26523;52.504;13.498;2022-09-03T02:14:39;1.75;;;0.60;;
40807;SDS011;26523;52.504;13.498;2022-09-03T02:24:03;1.10;;;0.68;;
40807;SDS011;26523;52.504;13.498;2022-09-03T02:26:30;2.38;;;1.15;;
40807;SDS011;26523;52.504;13.498;2022-09-03T02:28:56;1.98;;;0.88;;
40807;SDS011;26523;52.504;13.498;2022-09-03T02:31:22;2.50;;;0.90;;
40807;SDS011;26523;52.504;13.498;2022-09-03T02:33:48;4.47;;;0.80;;
40807;SDS011;26523;52.504;13.498;2022-09-03T02:36:16;5.45;;;0.90;;
40807;SDS011;26523;52.504;13.498;2022-09-03T02:38:45;1.20;;;0.70;;
40807;SDS011;26523;52.504;13.498;2022-09-03T02:41:11;2.38;;;0.77;;
40807;SDS011;26523;52.504;13.498;2022-09-03T02:46:20;2.05;;;0.80;;
40807;SDS011;26523;52.504;13.498;2022-09-03T02:48:50;3.65;;;1.10;;
40807;SDS011;26523;52.504;13.498;2022-09-03T02:51:17;2.78;;;0.73;;
40807;SDS011;26523;52.504;13.498;2022-09-03T02:53:42;1.60;;;0.70;;
40807;SDS011;26523;52.504;13.498;2022-09-03T02:56:08;2.17;;;0.68;;
40807;SDS011;26523;52.504;13.498;2022-09-03T02:58:34;1.83;;;1.10;;
40807;SDS011;26523;52.504;13.498;2022-09-03T03:01:00;2.42;;;0.75;;
40807;SDS011;26523;52.504;13.498;2022-09-03T03:03:25;1.38;;;0.85;;
40807;SDS011;26523;52.504;13.498;2022-09-03T03:05:52;4.35;;;0.73;;
40807;SDS011;26523;52.504;13.498;2022-09-03T03:08:21;1.95;;;0.70;;
40807;SDS011;26523;52.504;13.498;2022-09-03T03:10:53;1.17;;;0.60;;
40807;SDS011;26523;52.504;13.498;2022-09-03T03:13:26;6.97;;;0.93;;
40807;SDS011;26523;52.504;13.498;2022-09-03T03:16:00;1.92;;;0.80;;
40807;SDS011;26523;52.504;13.498;2022-09-03T03:18:27;3.50;;;0.95;;
40807;SDS011;26523;52.504;13.498;2022-09-03T03:20:53;1.90;;;0.88;;
40807;SDS011;26523;52.504;13.498;2022-09-03T03:23:19;3.30;;;1.15;;
40807;SDS011;26523;52.504;13.498;2022-09-03T03:25:45;1.38;;;0.57;;
40807;SDS011;26523;52.504;13.498;2022-09-03T03:28:10;2.10;;;0.75;;
40807;SDS011;26523;52.504;13.498;2022-09-03T03:30:37;3.00;;;1.40;;
40807;SDS011;26523;52.504;13.498;2022-09-03T03:33:06;4.38;;;0.93;;
40807;SDS011;26523;52.504;13.498;2022-09-03T03:35:32;1.85;;;0.73;;
40807;SDS011;26523;52.504;13.498;2022-09-03T03:37:59;2.47;;;1.08;;
40807;SDS011;26523;52.504;13.498;2022-09-03T03:40:25;1.33;;;0.90;;
40807;SDS011;26523;52.504;13.498;2022-09-03T03:42:50;1.25;;;0.60;;
40807;SDS011;26523;52.504;13.498;2022-09-03T03:45:17;1.17;;;0.75;;
40807;SDS011;26523;52.504;13.498;2022-09-03T03:47:43;1.70;;;1.00;;
40807;SDS011;26523;52.504;13.498;2022-09-03T03:50:09;2.95;;;1.13;;
40807;SDS011;26523;52.504;13.498;2022-09-03T03:52:34;4.88;;;0.82;;
40807;SDS011;26523;52.504;13.498;2022-09-03T03:55:00;2.05;;;0.98;;
40807;SDS011;26523;52.504;13.498;2022-09-03T03:57:28;2.90;;;1.38;;
40807;SDS011;26523;52.504;13.498;2022-09-03T03:59:54;4.32;;;0.82;;
40807;SDS011;26523;52.504;13.498;2022-09-03T04:02:20;2.58;;;1.20;;
40807;SDS011;26523;52.504;13.498;2022-09-03T04:04:45;3.17;;;1.17;;
40807;SDS011;26523;52.504;13.498;2022-09-03T04:07:11;1.85;;;0.85;;
40807;SDS011;26523;52.504;13.498;2022-09-03T04:09:36;3.30;;;1.15;;
40807;SDS011;26523;52.504;13.498;2022-09-03T04:12:02;1.95;;;1.02;;
40807;SDS011;26523;52.504;13.498;2022-09-03T04:14:32;1.35;;;0.82;;
40807;SDS011;26523;52.504;13.498;2022-09-03T04:16:59;2.15;;;0.90;;
40807;SDS011;26523;52.504;13.498;2022-09-03T04:19:26;1.95;;;1.10;;
40807;SDS011;26523;52.504;13.498;2022-09-03T04:21:54;1.92;;;1.10;;
40807;SDS011;26523;52.504;13.498;2022-09-03T04:24:20;2.95;;;1.10;;
40807;SDS011;26523;52.504;13.498;2022-09-03T04:26:46;3.03;;;1.40;;
40807;SDS011;26523;52.504;13.498;2022-09-03T04:29:14;2.63;;;1.30;;
40807;SDS011;26523;52.504;13.498;2022-09-03T04:31:43;2.90;;;1.17;;
40807;SDS011;26523;52.504;13.498;2022-09-03T04:34:29;1.65;;;0.93;;
40807;SDS011;26523;52.504;13.498;2022-09-03T04:36:56;5.68;;;1.85;;
40807;SDS011;26523;52.504;13.498;2022-09-03T04:39:22;4.68;;;1.40;;
40807;SDS011;26523;52.504;13.498;2022-09-03T04:41:48;2.30;;;1.27;;
40807;SDS011;26523;52.504;13.498;2022-09-03T04:44:14;2.08;;;0.95;;
40807;SDS011;26523;52.504;13.498;2022-09-03T04:46:40;2.50;;;1.10;;
40807;SDS011;26523;52.504;13.498;2022-09-03T04:49:06;2.58;;;1.13;;
40807;SDS011;26523;52.504;13.498;2022-09-03T04:51:33;5.05;;;1.23;;
40807;SDS011;26523;52.504;13.498;2022-09-03T04:54:01;2.40;;;1.20;;
40807;SDS011;26523;52.504;13.498;2022-09-03T04:56:28;2.65;;;1.23;;
40807;SDS011;26523;52.504;13.498;2022-09-03T04:58:56;1.88;;;1.27;;
40807;SDS011;26523;52.504;13.498;2022-09-03T05:01:29;3.10;;;1.33;;
40807;SDS011;26523;52.504;13.498;2022-09-03T05:03:56;2.65;;;1.40;;
40807;SDS011;26523;52.504;13.498;2022-09-03T05:06:23;1.85;;;1.00;;
40807;SDS011;26523;52.504;13.498;2022-09-03T05:08:50;5.72;;;1.08;;
40807;SDS011;26523;52.504;13.498;2022-09-03T05:11:17;3.40;;;1.45;;
40807;SDS011;26523;52.504;13.498;2022-09-03T05:13:45;2.05;;;1.02;;
40807;SDS011;26523;52.504;13.498;2022-09-03T05:16:12;8.73;;;1.33;;
40807;SDS011;26523;52.504;13.498;2022-09-03T05:18:38;1.65;;;1.20;;
40807;SDS011;26523;52.504;13.498;2022-09-03T05:21:10;4.07;;;1.35;;
40807;SDS011;26523;52.504;13.498;2022-09-03T05:23:38;2.85;;;1.40;;
40807;SDS011;26523;52.504;13.498;2022-09-03T05:26:07;4.65;;;1.50;;
40807;SDS011;26523;52.504;13.498;2022-09-03T05:28:37;5.28;;;1.30;;
40807;SDS011;26523;52.504;13.498;2022-09-03T05:31:09;9.63;;;1.52;;
40807;SDS011;26523;52.504;13.498;2022-09-03T05:33:42;2.45;;;1.35;;
40807;SDS011;26523;52.504;13.498;2022-09-03T05:36:10;3.20;;;1.33;;
40807;SDS011;26523;52.504;13.498;2022-09-03T05:38:38;2.95;;;1.35;;
40807;SDS011;26523;52.504;13.498;2022-09-03T05:41:05;1.95;;;1.10;;
40807;SDS011;26523;52.504;13.498;2022-09-03T05:43:33;4.82;;;1.15;;
40807;SDS011;26523;52.504;13.498;2022-09-03T05:45:59;2.28;;;1.10;;
40807;SDS011;26523;52.504;13.498;2022-09-03T05:48:26;1.85;;;1.20;;
40807;SDS011;26523;52.504;13.498;2022-09-03T05:51:00;4.95;;;1.27;;
40807;SDS011;26523;52.504;13.498;2022-09-03T05:53:27;7.37;;;1.43;;
40807;SDS011;26523;52.504;13.498;2022-09-03T05:55:54;4.10;;;1.30;;
40807;SDS011;26523;52.504;13.498;2022-09-03T05:58:30;4.07;;;1.42;;
40807;SDS011;26523;52.504;13.498;2022-09-03T06:00:57;5.55;;;1.40;;
40807;SDS011;26523;52.504;13.498;2022-09-03T06:03:23;3.10;;;1.33;;
40807;SDS011;26523;52.504;13.498;2022-09-03T06:05:49;3.08;;;1.20;;
40807;SDS011;26523;52.504;13.498;2022-09-03T06:08:16;3.38;;;1.20;;
40807;SDS011;26523;52.504;13.498;2022-09-03T06:10:42;2.88;;;1.15;;
40807;SDS011;26523;52.504;13.498;2022-09-03T06:13:07;1.55;;;0.90;;
40807;SDS011;26523;52.504;13.498;2022-09-03T06:15:33;3.20;;;1.08;;
40807;SDS011;26523;52.504;13.498;2022-09-03T06:17:58;1.42;;;0.90;;
40807;SDS011;26523;52.504;13.498;2022-09-03T06:20:24;2.92;;;1.23;;
40807;SDS011;26523;52.504;13.498;2022-09-03T06:22:52;3.58;;;1.15;;
40807;SDS011;26523;52.504;13.498;2022-09-03T06:25:21;2.80;;;1.00;;
40807;SDS011;26523;52.504;13.498;2022-09-03T06:27:47;2.95;;;1.10;;
40807;SDS011;26523;52.504;13.498;2022-09-03T06:30:13;7.18;;;1.20;;
40807;SDS011;26523;52.504;13.498;2022-09-03T06:32:46;2.60;;;0.93;;
40807;SDS011;26523;52.504;13.498;2022-09-03T06:35:16;4.57;;;1.40;;
40807;SDS011;26523;52.504;13.498;2022-09-03T06:37:42;5.85;;;1.25;;
40807;SDS011;26523;52.504;13.498;2022-09-03T06:40:08;2.67;;;1.00;;
40807;SDS011;26523;52.504;13.498;2022-09-03T06:42:40;3.25;;;1.40;;
40807;SDS011;26523;52.504;13.498;2022-09-03T06:45:07;6.28;;;1.10;;
40807;SDS011;26523;52.504;13.498;2022-09-03T06:47:34;2.65;;;0.90;;
40807;SDS011;26523;52.504;13.498;2022-09-03T06:49:59;3.10;;;1.05;;
40807;SDS011;26523;52.504;13.498;2022-09-03T06:52:26;4.70;;;1.02;;
40807;SDS011;26523;52.504;13.498;2022-09-03T06:54:52;1.95;;;1.00;;
40807;SDS011;26523;52.504;13.498;2022-09-03T06:57:18;3.90;;;1.02;;
40807;SDS011;26523;52.504;13.498;2022-09-03T06:59:44;3.13;;;1.02;;
40807;SDS011;26523;52.504;13.498;2022-09-03T07:02:10;3.83;;;0.93;;
40807;SDS011;26523;52.504;13.498;2022-09-03T07:04:35;1.55;;;0.85;;
40807;SDS011;26523;52.504;13.498;2022-09-03T07:07:01;2.30;;;1.20;;
40807;SDS011;26523;52.504;13.498;2022-09-03T07:09:27;3.28;;;1.17;;
40807;SDS011;26523;52.504;13.498;2022-09-03T07:11:53;2.75;;;1.10;;
40807;SDS011;26523;52.504;13.498;2022-09-03T07:14:19;3.03;;;0.90;;
40807;SDS011;26523;52.504;13.498;2022-09-03T07:16:46;3.10;;;1.08;;
40807;SDS011;26523;52.504;13.498;2022-09-03T07:19:13;4.22;;;0.98;;
40807;SDS011;26523;52.504;13.498;2022-09-03T07:21:42;2.20;;;0.98;;
40807;SDS011;26523;52.504;13.498;2022-09-03T07:24:08;3.78;;;1.70;;
40807;SDS011;26523;52.504;13.498;2022-09-03T07:26:35;1.70;;;0.82;;
40807;SDS011;26523;52.504;13.498;2022-09-03T07:29:03;1.80;;;0.98;;
40807;SDS011;26523;52.504;13.498;2022-09-03T07:31:36;3.40;;;0.95;;
40807;SDS011;26523;52.504;13.498;2022-09-03T07:34:04;2.35;;;0.90;;
40807;SDS011;26523;52.504;13.498;2022-09-03T07:36:34;2.53;;;1.15;;
40807;SDS011;26523;52.504;13.498;2022-09-03T07:39:08;2.22;;;0.98;;
40807;SDS011;26523;52.504;13.498;2022-09-03T07:41:35;2.67;;;1.10;;
40807;SDS011;26523;52.504;13.498;2022-09-03T07:44:02;3.67;;;1.17;;
40807;SDS011;26523;52.504;13.498;2022-09-03T07:46:31;3.58;;;1.05;;
40807;SDS011;26523;52.504;13.498;2022-09-03T07:48:59;5.53;;;1.08;;
40807;SDS011;26523;52.504;13.498;2022-09-03T07:51:27;3.63;;;1.10;;
40807;SDS011;26523;52.504;13.498;2022-09-03T07:53:55;4.32;;;1.08;;
40807;SDS011;26523;52.504;13.498;2022-09-03T07:56:23;6.80;;;1.15;;
40807;SDS011;26523;52.504;13.498;2022-09-03T07:58:50;2.40;;;1.20;;
40807;SDS011;26523;52.504;13.498;2022-09-03T08:01:16;2.20;;;1.15;;
40807;SDS011;26523;52.504;13.498;2022-09-03T08:03:47;5.50;;;0.90;;
40807;SDS011;26523;52.504;13.498;2022-09-03T08:06:16;1.45;;;0.82;;
40807;SDS011;26523;52.504;13.498;2022-09-03T08:08:43;7.97;;;1.08;;
40807;SDS011;26523;52.504;13.498;2022-09-03T08:16:11;2.58;;;1.10;;
40807;SDS011;26523;52.504;13.498;2022-09-03T08:18:37;3.13;;;1.02;;
40807;SDS011;26523;52.504;13.498;2022-09-03T08:21:07;2.17;;;1.08;;
40807;SDS011;26523;52.504;13.498;2022-09-03T08:23:47;2.13;;;1.00;;
40807;SDS011;26523;52.504;13.498;2022-09-03T08:28:51;3.75;;;1.15;;
40807;SDS011;26523;52.504;13.498;2022-09-03T08:31:18;4.88;;;1.25;;
40807;SDS011;26523;52.504;13.498;2022-09-03T08:33:48;2.75;;;0.98;;
40807;SDS011;26523;52.504;13.498;2022-09-03T08:36:16;3.45;;;0.93;;
40807;SDS011;26523;52.504;13.498;2022-09-03T08:38:43;1.83;;;0.90;;
40807;SDS011;26523;52.504;13.498;2022-09-03T08:44:02;2.00;;;1.07;;
40807;SDS011;26523;52.504;13.498;2022-09-03T08:46:53;1.65;;;0.80;;
40807;SDS011;26523;52.504;13.498;2022-09-03T08:49:22;1.80;;;1.00;;
40807;SDS011;26523;52.504;13.498;2022-09-03T08:51:55;3.20;;;0.95;;
40807;SDS011;26523;52.504;13.498;2022-09-03T08:54:25;1.83;;;0.90;;
40807;SDS011;26523;52.504;13.498;2022-09-03T08:56:55;7.30;;;0.88;;
40807;SDS011;26523;52.504;13.498;2022-09-03T08:59:25;2.35;;;0.82;;
40807;SDS011;26523;52.504;13.498;2022-09-03T09:01:54;2.53;;;0.88;;
40807;SDS011;26523;52.504;13.498;2022-09-03T09:04:51;1.67;;;0.90;;
40807;SDS011;26523;52.504;13.498;2022-09-03T09:10:12;1.98;;;0.80;;
40807;SDS011;26523;52.504;13.498;2022-09-03T09:15:46;4.22;;;1.00;;
40807;SDS011;26523;52.504;13.498;2022-09-03T09:21:26;1.88;;;0.90;;
40807;SDS011;26523;52.504;13.498;2022-09-03T09:24:01;3.35;;;0.95;;
40807;SDS011;26523;52.504;13.498;2022-09-03T09:26:40;3.58;;;1.00;;
40807;SDS011;26523;52.504;13.498;2022-09-03T09:29:06;1.83;;;0.80;;
40807;SDS011;26523;52.504;13.498;2022-09-03T09:31:34;3.15;;;1.10;;
40807;SDS011;26523;52.504;13.498;2022-09-03T09:34:04;1.65;;;0.68;;
40807;SDS011;26523;52.504;13.498;2022-09-03T09:36:41;2.55;;;1.25;;
40807;SDS011;26523;52.504;13.498;2022-09-03T09:39:13;4.68;;;0.88;;
40807;SDS011;26523;52.504;13.498;2022-09-03T09:41:43;3.55;;;1.15;;
40807;SDS011;26523;52.504;13.498;2022-09-03T09:44:21;3.10;;;1.33;;
40807;SDS011;26523;52.504;13.498;2022-09-03T09:46:49;2.33;;;0.93;;
40807;SDS011;26523;52.504;13.498;2022-09-03T09:49:32;1.90;;;0.70;;
40807;SDS011;26523;52.504;13.498;2022-09-03T09:52:02;2.65;;;1.10;;
40807;SDS011;26523;52.504;13.498;2022-09-03T09:54:39;3.28;;;0.82;;
40807;SDS011;26523;52.504;13.498;2022-09-03T09:57:07;2.92;;;0.90;;
40807;SDS011;26523;52.504;13.498;2022-09-03T09:59:45;1.30;;;0.70;;
40807;SDS011;26523;52.504;13.498;2022-09-03T10:02:13;1.15;;;0.68;;
40807;SDS011;26523;52.504;13.498;2022-09-03T10:04:57;2.65;;;1.05;;
40807;SDS011;26523;52.504;13.498;2022-09-03T10:07:35;2.95;;;1.02;;
40807;SDS011;26523;52.504;13.498;2022-09-03T10:10:03;5.82;;;1.00;;
40807;SDS011;26523;52.504;13.498;2022-09-03T10:18:14;2.30;;;0.70;;
40807;SDS011;26523;52.504;13.498;2022-09-03T10:21:05;2.20;;;0.90;;
40807;SDS011;26523;52.504;13.498;2022-09-03T10:23:56;2.35;;;0.77;;
40807;SDS011;26523;52.504;13.498;2022-09-03T10:26:29;2.25;;;0.90;;
40807;SDS011;26523;52.504;13.498;2022-09-03T10:28:56;7.47;;;0.95;;
40807;SDS011;26523;52.504;13.498;2022-09-03T10:40:14;2.25;;;0.77;;
40807;SDS011;26523;52.504;13.498;2022-09-03T10:51:24;2.15;;;0.93;;
40807;SDS011;26523;52.504;13.498;2022-09-03T11:10:31;3.42;;;1.00;;
40807;SDS011;26523;52.504;13.498;2022-09-03T11:15:30;1.83;;;0.90;;
40807;SDS011;26523;52.504;13.498;2022-09-03T11:20:44;1.88;;;0.65;;
40807;SDS011;26523;52.504;13.498;2022-09-03T11:23:13;4.03;;;0.85;;
40807;SDS011;26523;52.504;13.498;2022-09-03T11:25:52;1.63;;;0.80;;
40807;SDS011;26523;52.504;13.498;2022-09-03T11:42:00;1.13;;;0.80;;
40807;SDS011;26523;52.504;13.498;2022-09-03T11:44:37;3.33;;;1.00;;
40807;SDS011;26523;52.504;13.498;2022-09-03T11:47:15;5.43;;;1.10;;
40807;SDS011;26523;52.504;13.498;2022-09-03T11:49:46;2.08;;;0.85;;
40807;SDS011;26523;52.504;13.498;2022-09-03T11:52:29;3.67;;;0.75;;
40807;SDS011;26523;52.504;13.498;2022-09-03T11:55:04;1.55;;;0.52;;
40807;SDS011;26523;52.504;13.498;2022-09-03T11:57:31;2.92;;;0.70;;
40807;SDS011;26523;52.504;13.498;2022-09-03T12:00:08;3.33;;;0.80;;
40807;SDS011;26523;52.504;13.498;2022-09-03T12:02:46;1.98;;;0.60;;
40807;SDS011;26523;52.504;13.498;2022-09-03T12:10:53;1.10;;;0.57;;
40807;SDS011;26523;52.504;13.498;2022-09-03T12:13:50;1.85;;;0.90;;
40807;SDS011;26523;52.504;13.498;2022-09-03T12:16:21;0.93;;;0.52;;
40807;SDS011;26523;52.504;13.498;2022-09-03T12:19:05;1.58;;;0.77;;
40807;SDS011;26523;52.504;13.498;2022-09-03T12:21:39;2.08;;;0.55;;
40807;SDS011;26523;52.504;13.498;2022-09-03T12:24:05;2.83;;;0.98;;
40807;SDS011;26523;52.504;13.498;2022-09-03T12:26:37;1.75;;;0.80;;
40807;SDS011;26523;52.504;13.498;2022-09-03T12:29:05;3.28;;;0.93;;
40807;SDS011;26523;52.504;13.498;2022-09-03T12:31:32;1.20;;;0.60;;
40807;SDS011;26523;52.504;13.498;2022-09-03T12:34:10;0.60;;;0.43;;
40807;SDS011;26523;52.504;13.498;2022-09-03T12:36:43;1.98;;;0.70;;
40807;SDS011;26523;52.504;13.498;2022-09-03T12:39:11;4.97;;;1.27;;
40807;SDS011;26523;52.504;13.498;2022-09-03T12:41:51;1.63;;;0.88;;
40807;SDS011;26523;52.504;13.498;2022-09-03T12:49:49;1.60;;;0.77;;
40807;SDS011;26523;52.504;13.498;2022-09-03T12:54:49;3.67;;;1.52;;
40807;SDS011;26523;52.504;13.498;2022-09-03T12:57:39;1.88;;;0.90;;
40807;SDS011;26523;52.504;13.498;2022-09-03T13:00:14;1.63;;;0.80;;
40807;SDS011;26523;52.504;13.498;2022-09-03T13:05:34;3.42;;;1.05;;
40807;SDS011;26523;52.504;13.498;2022-09-03T13:08:07;4.03;;;1.10;;
40807;SDS011;26523;52.504;13.498;2022-09-03T13:10:39;3.17;;;0.80;;
40807;SDS011;26523;52.504;13.498;2022-09-03T13:27:16;1.98;;;1.02;;
40807;SDS011;26523;52.504;13.498;2022-09-03T13:29:59;3.20;;;1.25;;
40807;SDS011;26523;52.504;13.498;2022-09-03T13:33:15;1.50;;;0.88;;
40807;SDS011;26523;52.504;13.498;2022-09-03T13:35:33;1.95;;;0.80;;
40807;SDS011;26523;52.504;13.498;2022-09-03T13:38:26;5.47;;;0.80;;
40807;SDS011;26523;52.504;13.498;2022-09-03T13:46:19;0.70;;;0.35;;
40807;SDS011;26523;52.504;13.498;2022-09-03T13:48:55;2.00;;;0.77;;
40807;SDS011;26523;52.504;13.498;2022-09-03T13:51:56;1.60;;;0.80;;
40807;SDS011;26523;52.504;13.498;2022-09-03T13:54:35;2.67;;;0.70;;
40807;SDS011;26523;52.504;13.498;2022-09-03T13:57:08;4.32;;;0.80;;
40807;SDS011;26523;52.504;13.498;2022-09-03T14:00:02;2.03;;;0.90;;
40807;SDS011;26523;52.504;13.498;2022-09-03T14:07:52;5.60;;;0.90;;
40807;SDS011;26523;52.504;13.498;2022-09-03T14:10:23;2.15;;;0.95;;
40807;SDS011;26523;52.504;13.498;2022-09-03T14:19:09;2.00;;;0.77;;
40807;SDS011;26523;52.504;13.498;2022-09-03T14:24:33;2.00;;;0.90;;
40807;SDS011;26523;52.504;13.498;2022-09-03T14:27:06;3.50;;;0.90;;
40807;SDS011;26523;52.504;13.498;2022-09-03T14:29:32;2.85;;;0.88;;
40807;SDS011;26523;52.504;13.498;2022-09-03T14:35:11;1.13;;;0.73;;
40807;SDS011;26523;52.504;13.498;2022-09-03T14:37:47;1.67;;;0.80;;
40807;SDS011;26523;52.504;13.498;2022-09-03T14:40:41;1.95;;;0.77;;
40807;SDS011;26523;52.504;13.498;2022-09-03T14:43:27;1.52;;;0.77;;
40807;SDS011;26523;52.504;13.498;2022-09-03T14:51:53;4.10;;;0.90;;
40807;SDS011;26523;52.504;13.498;2022-09-03T14:57:38;2.05;;;0.70;;
40807;SDS011;26523;52.504;13.498;2022-09-03T15:10:54;1.83;;;0.88;;
40807;SDS011;26523;52.504;13.498;2022-09-03T15:13:29;5.68;;;1.10;;
40807;SDS011;26523;52.504;13.498;2022-09-03T15:16:07;2.63;;;1.13;;
40807;SDS011;26523;52.504;13.498;2022-09-03T15:25:01;1.63;;;0.80;;
40807;SDS011;26523;52.504;13.498;2022-09-03T15:30:19;1.88;;;0.80;;
40807;SDS011;26523;52.504;13.498;2022-09-03T15:35:34;1.23;;;0.80;;
40807;SDS011;26523;52.504;13.498;2022-09-03T15:41:06;1.05;;;0.60;;
40807;SDS011;26523;52.504;13.498;2022-09-03T15:43:42;1.85;;;0.90;;
40807;SDS011;26523;52.504;13.498;2022-09-03T15:46:27;2.17;;;1.30;;
40807;SDS011;26523;52.504;13.498;2022-09-03T15:52:04;2.05;;;1.10;;
40807;SDS011;26523;52.504;13.498;2022-09-03T16:00:02;3.70;;;0.98;;
40807;SDS011;26523;52.504;13.498;2022-09-03T16:02:44;2.72;;;0.98;;
40807;SDS011;26523;52.504;13.498;2022-09-03T16:05:43;2.33;;;1.23;;
40807;SDS011;26523;52.504;13.498;2022-09-03T16:08:22;2.47;;;0.98;;
40807;SDS011;26523;52.504;13.498;2022-09-03T16:11:15;7.78;;;1.10;;
40807;SDS011;26523;52.504;13.498;2022-09-03T16:19:22;3.00;;;1.10;;
40807;SDS011;26523;52.504;13.498;2022-09-03T16:21:59;2.53;;;1.23;;
40807;SDS011;26523;52.504;13.498;2022-09-03T16:24:36;2.75;;;1.20;;
40807;SDS011;26523;52.504;13.498;2022-09-03T16:27:21;3.25;;;1.70;;
40807;SDS011;26523;52.504;13.498;2022-09-03T16:29:59;8.23;;;1.42;;
40807;SDS011;26523;52.504;13.498;2022-09-03T16:32:53;1.42;;;1.00;;
40807;SDS011;26523;52.504;13.498;2022-09-03T16:38:38;2.55;;;1.00;;
40807;SDS011;26523;52.504;13.498;2022-09-03T16:47:07;1.85;;;0.90;;
40807;SDS011;26523;52.504;13.498;2022-09-03T17:18:04;3.22;;;1.30;;
40807;SDS011;26523;52.504;13.498;2022-09-03T17:23:53;4.28;;;1.23;;
40807;SDS011;26523;52.504;13.498;2022-09-03T17:29:46;3.85;;;1.38;;
40807;SDS011;26523;52.504;13.498;2022-09-03T17:35:33;3.38;;;1.27;;
40807;SDS011;26523;52.504;13.498;2022-09-03T17:38:10;4.93;;;2.15;;
40807;SDS011;26523;52.504;13.498;2022-09-03T17:49:44;3.20;;;1.48;;
40807;SDS011;26523;52.504;13.498;2022-09-03T17:52:26;5.25;;;1.20;;
40807;SDS011;26523;52.504;13.498;2022-09-03T17:55:33;3.75;;;1.30;;
40807;SDS011;26523;52.504;13.498;2022-09-03T17:58:16;5.93;;;1.45;;
40807;SDS011;26523;52.504;13.498;2022-09-03T18:01:02;3.47;;;1.33;;
40807;SDS011;26523;52.504;13.498;2022-09-03T18:03:46;4.40;;;1.60;;
40807;SDS011;26523;52.504;13.498;2022-09-03T18:09:04;3.08;;;1.30;;
40807;SDS011;26523;52.504;13.498;2022-09-03T18:11:45;2.97;;;1.17;;
40807;SDS011;26523;52.504;13.498;2022-09-03T18:17:00;2.83;;;1.33;;
40807;SDS011;26523;52.504;13.498;2022-09-03T18:19:49;2.35;;;1.20;;
40807;SDS011;26523;52.504;13.498;2022-09-03T18:25:41;4.43;;;1.50;;
40807;SDS011;26523;52.504;13.498;2022-09-03T18:28:34;3.20;;;1.02;;
40807;SDS011;26523;52.504;13.498;2022-09-03T18:31:27;5.32;;;1.10;;
40807;SDS011;26523;52.504;13.498;2022-09-03T18:34:11;6.60;;;2.30;;
40807;SDS011;26523;52.504;13.498;2022-09-03T18:36:58;3.78;;;1.60;;
40807;SDS011;26523;52.504;13.498;2022-09-03T18:39:44;3.35;;;1.23;;
40807;SDS011;26523;52.504;13.498;2022-09-03T18:45:48;3.17;;;1.70;;
40807;SDS011;26523;52.504;13.498;2022-09-03T18:48:58;2.33;;;1.13;;
40807;SDS011;26523;52.504;13.498;2022-09-03T19:01:06;5.45;;;1.35;;
40807;SDS011;26523;52.504;13.498;2022-09-03T19:07:11;3.55;;;1.67;;
40807;SDS011;26523;52.504;13.498;2022-09-03T19:10:13;4.70;;;1.50;;
40807;SDS011;26523;52.504;13.498;2022-09-03T19:21:47;5.75;;;1.80;;
40807;SDS011;26523;52.504;13.498;2022-09-03T19:24:36;3.33;;;1.50;;
40807;SDS011;26523;52.504;13.498;2022-09-03T19:30:47;3.30;;;1.25;;
40807;SDS011;26523;52.504;13.498;2022-09-03T19:39:56;6.75;;;1.85;;
40807;SDS011;26523;52.504;13.498;2022-09-03T19:48:46;2.92;;;1.50;;
40807;SDS011;26523;52.504;13.498;2022-09-03T19:51:34;4.45;;;1.95;;
40807;SDS011;26523;52.504;13.498;2022-09-03T19:54:33;7.50;;;1.80;;
40807;SDS011;26523;52.504;13.498;2022-09-03T19:57:19;5.47;;;1.83;;
40807;SDS011;26523;52.504;13.498;2022-09-03T20:00:05;3.42;;;1.80;;
40807;SDS011;26523;52.504;13.498;2022-09-03T20:05:33;5.53;;;1.65;;
40807;SDS011;26523;52.504;13.498;2022-09-03T20:08:19;3.28;;;1.70;;
40807;SDS011;26523;52.504;13.498;2022-09-03T20:11:06;4.07;;;1.70;;
40807;SDS011;26523;52.504;13.498;2022-09-03T20:13:40;12.15;;;1.83;;
40807;SDS011;26523;52.504;13.498;2022-09-03T20:16:30;4.45;;;1.80;;
40807;SDS011;26523;52.504;13.498;2022-09-03T20:19:31;3.90;;;1.73;;
40807;SDS011;26523;52.504;13.498;2022-09-03T20:22:10;6.70;;;1.92;;
40807;SDS011;26523;52.504;13.498;2022-09-03T20:35:16;3.40;;;1.65;;
40807;SDS011;26523;52.504;13.498;2022-09-03T20:43:57;4.45;;;2.20;;
40807;SDS011;26523;52.504;13.498;2022-09-03T20:46:52;3.20;;;1.52;;
40807;SDS011;26523;52.504;13.498;2022-09-03T20:52:11;3.60;;;1.80;;
40807;SDS011;26523;52.504;13.498;2022-09-03T20:54:55;4.13;;;1.63;;
40807;SDS011;26523;52.504;13.498;2022-09-03T20:57:35;3.00;;;1.60;;
40807;SDS011;26523;52.504;13.498;2022-09-03T21:00:14;2.85;;;1.27;;
40807;SDS011;26523;52.504;13.498;2022-09-03T21:05:12;2.95;;;1.35;;
40807;SDS011;26523;52.504;13.498;2022-09-03T21:10:20;2.50;;;1.13;;
40807;SDS011;26523;52.504;13.498;2022-09-03T21:21:22;4.45;;;1.88;;